<?xml version='1.0' encoding='UTF-8'?><gpx version="1.1" creator="JPX - https://github.com/jenetics/jpx" xmlns="http://www.topografix.com/GPX/1/1"><trk><trkseg><trkpt lat="44.1157539" lon="9.7781274"><ele>454.99999999999994</ele><time>2026-04-05T16:59:22.506Z</time></trkpt><trkpt lat="44.1157689" lon="9.7780231"><ele>455.0</ele><time>2026-04-05T16:59:30.442Z</time></trkpt><trkpt lat="44.1158362" lon="9.7780229"><ele>455.0</ele><time>2026-04-05T16:59:33.442Z</time></trkpt><trkpt lat="44.1158656" lon="9.7781015"><ele>455.0</ele><time>2026-04-05T16:59:35.442Z</time></trkpt><trkpt lat="44.1158658" lon="9.7782137"><ele>454.99999999999994</ele><time>2026-04-05T16:59:37.438Z</time></trkpt><trkpt lat="44.1158313" lon="9.7783468"><ele>455.0</ele><time>2026-04-05T16:59:39.442Z</time></trkpt><trkpt lat="44.1157847" lon="9.7784649"><ele>459.25</ele><time>2026-04-05T16:59:41.424Z</time></trkpt><trkpt lat="44.1157307" lon="9.7785878"><ele>463.5</ele><time>2026-04-05T16:59:43.451Z</time></trkpt><trkpt lat="44.1156713" lon="9.778723"><ele>467.75</ele><time>2026-04-05T16:59:45.424Z</time></trkpt><trkpt lat="44.1156047" lon="9.7788563"><ele>472.0</ele><time>2026-04-05T16:59:47.438Z</time></trkpt><trkpt lat="44.1155289" lon="9.7790047"><ele>472.00000000000006</ele><time>2026-04-05T16:59:49.445Z</time></trkpt><trkpt lat="44.1154887" lon="9.7790864"><ele>472.0</ele><time>2026-04-05T16:59:50.42Z</time></trkpt><trkpt lat="44.1154443" lon="9.77917"><ele>472.0</ele><time>2026-04-05T16:59:51.418Z</time></trkpt><trkpt lat="44.1154006" lon="9.7792529"><ele>472.0</ele><time>2026-04-05T16:59:52.42Z</time></trkpt><trkpt lat="44.1153487" lon="9.7793289"><ele>472.00000000000006</ele><time>2026-04-05T16:59:53.436Z</time></trkpt><trkpt lat="44.115301" lon="9.7794106"><ele>472.0</ele><time>2026-04-05T16:59:54.42Z</time></trkpt><trkpt lat="44.1152448" lon="9.7794943"><ele>468.1666666666667</ele><time>2026-04-05T16:59:55.425Z</time></trkpt><trkpt lat="44.1151967" lon="9.7795773"><ele>464.33333333333337</ele><time>2026-04-05T16:59:56.419Z</time></trkpt><trkpt lat="44.1151447" lon="9.7796589"><ele>460.5</ele><time>2026-04-05T16:59:57.426Z</time></trkpt><trkpt lat="44.11509" lon="9.7797404"><ele>456.66666666666663</ele><time>2026-04-05T16:59:58.424Z</time></trkpt><trkpt lat="44.1150337" lon="9.779818"><ele>452.8333333333333</ele><time>2026-04-05T16:59:59.431Z</time></trkpt><trkpt lat="44.114972" lon="9.7798935"><ele>449.0</ele><time>2026-04-05T17:00:00.424Z</time></trkpt><trkpt lat="44.1149139" lon="9.7799712"><ele>450.66666666666663</ele><time>2026-04-05T17:00:01.43Z</time></trkpt><trkpt lat="44.1148592" lon="9.7800525"><ele>452.3333333333333</ele><time>2026-04-05T17:00:02.42Z</time></trkpt><trkpt lat="44.1148076" lon="9.7801446"><ele>454.0</ele><time>2026-04-05T17:00:03.423Z</time></trkpt><trkpt lat="44.1147642" lon="9.780247"><ele>455.66666666666663</ele><time>2026-04-05T17:00:04.425Z</time></trkpt><trkpt lat="44.1147237" lon="9.7803534"><ele>457.3333333333333</ele><time>2026-04-05T17:00:05.422Z</time></trkpt><trkpt lat="44.114687" lon="9.7804575"><ele>459.0</ele><time>2026-04-05T17:00:06.424Z</time></trkpt><trkpt lat="44.1146501" lon="9.7805595"><ele>459.0</ele><time>2026-04-05T17:00:07.437Z</time></trkpt><trkpt lat="44.1146043" lon="9.7806505"><ele>459.0</ele><time>2026-04-05T17:00:08.413Z</time></trkpt><trkpt lat="44.1145625" lon="9.7807427"><ele>459.0</ele><time>2026-04-05T17:00:09.438Z</time></trkpt><trkpt lat="44.114512" lon="9.7808339"><ele>459.0</ele><time>2026-04-05T17:00:10.417Z</time></trkpt><trkpt lat="44.1144624" lon="9.7809157"><ele>459.0</ele><time>2026-04-05T17:00:11.429Z</time></trkpt><trkpt lat="44.1144099" lon="9.7809904"><ele>459.0</ele><time>2026-04-05T17:00:12.433Z</time></trkpt><trkpt lat="44.114356" lon="9.7810677"><ele>459.8333333333333</ele><time>2026-04-05T17:00:13.423Z</time></trkpt><trkpt lat="44.1143063" lon="9.7811428"><ele>460.66666666666663</ele><time>2026-04-05T17:00:14.429Z</time></trkpt><trkpt lat="44.1142508" lon="9.78121"><ele>461.5</ele><time>2026-04-05T17:00:15.483Z</time></trkpt><trkpt lat="44.1141919" lon="9.7812826"><ele>462.3333333333333</ele><time>2026-04-05T17:00:16.422Z</time></trkpt><trkpt lat="44.1141318" lon="9.7813639"><ele>463.16666666666663</ele><time>2026-04-05T17:00:17.462Z</time></trkpt><trkpt lat="44.1140789" lon="9.7814476"><ele>464.0</ele><time>2026-04-05T17:00:18.427Z</time></trkpt><trkpt lat="44.1140205" lon="9.7815356"><ele>463.99999999999994</ele><time>2026-04-05T17:00:19.417Z</time></trkpt><trkpt lat="44.1139713" lon="9.7816361"><ele>464.0</ele><time>2026-04-05T17:00:20.416Z</time></trkpt><trkpt lat="44.1139258" lon="9.7817386"><ele>464.0</ele><time>2026-04-05T17:00:21.421Z</time></trkpt><trkpt lat="44.1138803" lon="9.7818427"><ele>464.0</ele><time>2026-04-05T17:00:22.414Z</time></trkpt><trkpt lat="44.1138408" lon="9.7819544"><ele>463.99999999999994</ele><time>2026-04-05T17:00:23.419Z</time></trkpt><trkpt lat="44.1138005" lon="9.7820571"><ele>464.0</ele><time>2026-04-05T17:00:24.419Z</time></trkpt><trkpt lat="44.1137509" lon="9.7821594"><ele>459.49999999999994</ele><time>2026-04-05T17:00:25.431Z</time></trkpt><trkpt lat="44.1137076" lon="9.7822537"><ele>455.0</ele><time>2026-04-05T17:00:26.42Z</time></trkpt><trkpt lat="44.1136631" lon="9.7823536"><ele>450.5</ele><time>2026-04-05T17:00:27.428Z</time></trkpt><trkpt lat="44.1136132" lon="9.7824505"><ele>446.0</ele><time>2026-04-05T17:00:28.424Z</time></trkpt><trkpt lat="44.1135601" lon="9.7825482"><ele>441.49999999999994</ele><time>2026-04-05T17:00:29.427Z</time></trkpt><trkpt lat="44.1135024" lon="9.7826315"><ele>437.0</ele><time>2026-04-05T17:00:30.425Z</time></trkpt><trkpt lat="44.1134468" lon="9.7827197"><ele>437.99999999999994</ele><time>2026-04-05T17:00:31.43Z</time></trkpt><trkpt lat="44.1133891" lon="9.7828176"><ele>439.0</ele><time>2026-04-05T17:00:32.42Z</time></trkpt><trkpt lat="44.1133381" lon="9.7829195"><ele>440.0</ele><time>2026-04-05T17:00:33.422Z</time></trkpt><trkpt lat="44.1132959" lon="9.7830338"><ele>441.0</ele><time>2026-04-05T17:00:34.412Z</time></trkpt><trkpt lat="44.1132545" lon="9.7831421"><ele>441.99999999999994</ele><time>2026-04-05T17:00:35.429Z</time></trkpt><trkpt lat="44.1132133" lon="9.7832437"><ele>443.0</ele><time>2026-04-05T17:00:36.428Z</time></trkpt><trkpt lat="44.1131743" lon="9.7833471"><ele>442.99999999999994</ele><time>2026-04-05T17:00:37.423Z</time></trkpt><trkpt lat="44.1131343" lon="9.7834482"><ele>443.0</ele><time>2026-04-05T17:00:38.419Z</time></trkpt><trkpt lat="44.1130959" lon="9.7835387"><ele>443.0</ele><time>2026-04-05T17:00:39.427Z</time></trkpt><trkpt lat="44.1130544" lon="9.7836248"><ele>443.0</ele><time>2026-04-05T17:00:40.425Z</time></trkpt><trkpt lat="44.113003" lon="9.7837035"><ele>442.99999999999994</ele><time>2026-04-05T17:00:41.426Z</time></trkpt><trkpt lat="44.1129483" lon="9.7837699"><ele>443.0</ele><time>2026-04-05T17:00:42.42Z</time></trkpt><trkpt lat="44.1128884" lon="9.7838307"><ele>439.7142857142857</ele><time>2026-04-05T17:00:43.431Z</time></trkpt><trkpt lat="44.112833" lon="9.7838895"><ele>436.42857142857144</ele><time>2026-04-05T17:00:44.417Z</time></trkpt><trkpt lat="44.1127784" lon="9.7839413"><ele>433.1428571428571</ele><time>2026-04-05T17:00:45.434Z</time></trkpt><trkpt lat="44.1127118" lon="9.7839849"><ele>429.8571428571429</ele><time>2026-04-05T17:00:46.426Z</time></trkpt><trkpt lat="44.1126488" lon="9.7840265"><ele>426.57142857142856</ele><time>2026-04-05T17:00:47.418Z</time></trkpt><trkpt lat="44.1125804" lon="9.7840655"><ele>423.2857142857143</ele><time>2026-04-05T17:00:48.429Z</time></trkpt><trkpt lat="44.1125062" lon="9.7841053"><ele>420.0</ele><time>2026-04-05T17:00:49.437Z</time></trkpt><trkpt lat="44.1124286" lon="9.7841502"><ele>418.5</ele><time>2026-04-05T17:00:50.425Z</time></trkpt><trkpt lat="44.1123537" lon="9.784197"><ele>417.0</ele><time>2026-04-05T17:00:51.415Z</time></trkpt><trkpt lat="44.1122965" lon="9.78424"><ele>415.5</ele><time>2026-04-05T17:00:52.43Z</time></trkpt><trkpt lat="44.1122459" lon="9.7842933"><ele>414.0</ele><time>2026-04-05T17:00:53.425Z</time></trkpt><trkpt lat="44.1121735" lon="9.7844493"><ele>412.5</ele><time>2026-04-05T17:00:55.461Z</time></trkpt><trkpt lat="44.112142" lon="9.7845304"><ele>411.0</ele><time>2026-04-05T17:00:56.424Z</time></trkpt><trkpt lat="44.1120987" lon="9.7846091"><ele>411.0</ele><time>2026-04-05T17:00:57.437Z</time></trkpt><trkpt lat="44.1120475" lon="9.7846795"><ele>411.0</ele><time>2026-04-05T17:00:58.419Z</time></trkpt><trkpt lat="44.1119925" lon="9.7847465"><ele>411.0</ele><time>2026-04-05T17:00:59.425Z</time></trkpt><trkpt lat="44.1119314" lon="9.7848119"><ele>411.0</ele><time>2026-04-05T17:01:00.427Z</time></trkpt><trkpt lat="44.1118685" lon="9.7848668"><ele>411.0</ele><time>2026-04-05T17:01:01.429Z</time></trkpt><trkpt lat="44.1117471" lon="9.7849372"><ele>411.0</ele><time>2026-04-05T17:01:03.432Z</time></trkpt><trkpt lat="44.111688" lon="9.7849748"><ele>411.0</ele><time>2026-04-05T17:01:04.421Z</time></trkpt><trkpt lat="44.111632" lon="9.7850249"><ele>411.0</ele><time>2026-04-05T17:01:05.427Z</time></trkpt><trkpt lat="44.1115711" lon="9.7850732"><ele>411.0</ele><time>2026-04-05T17:01:06.423Z</time></trkpt><trkpt lat="44.1115056" lon="9.7851245"><ele>411.0</ele><time>2026-04-05T17:01:07.429Z</time></trkpt><trkpt lat="44.1114346" lon="9.7851644"><ele>411.0</ele><time>2026-04-05T17:01:08.49Z</time></trkpt><trkpt lat="44.1113593" lon="9.7851964"><ele>411.0</ele><time>2026-04-05T17:01:09.435Z</time></trkpt><trkpt lat="44.1112862" lon="9.7852302"><ele>411.0</ele><time>2026-04-05T17:01:10.439Z</time></trkpt><trkpt lat="44.1112106" lon="9.7852621"><ele>410.0</ele><time>2026-04-05T17:01:11.425Z</time></trkpt><trkpt lat="44.1111324" lon="9.7852799"><ele>409.0</ele><time>2026-04-05T17:01:12.428Z</time></trkpt><trkpt lat="44.1110555" lon="9.7852892"><ele>408.0</ele><time>2026-04-05T17:01:13.418Z</time></trkpt><trkpt lat="44.1109747" lon="9.7852974"><ele>407.0</ele><time>2026-04-05T17:01:14.422Z</time></trkpt><trkpt lat="44.1108975" lon="9.7853014"><ele>406.0</ele><time>2026-04-05T17:01:15.425Z</time></trkpt><trkpt lat="44.1108186" lon="9.7853055"><ele>405.0</ele><time>2026-04-05T17:01:16.423Z</time></trkpt><trkpt lat="44.1107385" lon="9.7853155"><ele>405.0</ele><time>2026-04-05T17:01:17.423Z</time></trkpt><trkpt lat="44.1106634" lon="9.7853442"><ele>405.0</ele><time>2026-04-05T17:01:18.418Z</time></trkpt><trkpt lat="44.1105909" lon="9.7854001"><ele>405.0</ele><time>2026-04-05T17:01:19.426Z</time></trkpt><trkpt lat="44.1105164" lon="9.7854499"><ele>405.0</ele><time>2026-04-05T17:01:20.428Z</time></trkpt><trkpt lat="44.1104322" lon="9.7854995"><ele>405.0</ele><time>2026-04-05T17:01:21.423Z</time></trkpt><trkpt lat="44.110344" lon="9.7855406"><ele>405.0</ele><time>2026-04-05T17:01:22.424Z</time></trkpt><trkpt lat="44.1102595" lon="9.7855653"><ele>405.0</ele><time>2026-04-05T17:01:23.43Z</time></trkpt><trkpt lat="44.1101892" lon="9.7855793"><ele>405.0</ele><time>2026-04-05T17:01:24.418Z</time></trkpt><trkpt lat="44.110123" lon="9.7855871"><ele>405.0</ele><time>2026-04-05T17:01:25.427Z</time></trkpt><trkpt lat="44.1100113" lon="9.7856039"><ele>405.0</ele><time>2026-04-05T17:01:27.416Z</time></trkpt><trkpt lat="44.1099573" lon="9.785687"><ele>405.0</ele><time>2026-04-05T17:01:29.423Z</time></trkpt><trkpt lat="44.1099307" lon="9.7858308"><ele>405.0</ele><time>2026-04-05T17:01:31.445Z</time></trkpt><trkpt lat="44.1099482" lon="9.7859787"><ele>403.8333333333333</ele><time>2026-04-05T17:01:33.427Z</time></trkpt><trkpt lat="44.1099922" lon="9.786102"><ele>402.66666666666663</ele><time>2026-04-05T17:01:35.421Z</time></trkpt><trkpt lat="44.110079" lon="9.7862364"><ele>401.5</ele><time>2026-04-05T17:01:37.412Z</time></trkpt><trkpt lat="44.110125" lon="9.7863068"><ele>400.3333333333333</ele><time>2026-04-05T17:01:38.424Z</time></trkpt><trkpt lat="44.1101671" lon="9.7863817"><ele>399.16666666666663</ele><time>2026-04-05T17:01:39.424Z</time></trkpt><trkpt lat="44.1102116" lon="9.7864705"><ele>398.0</ele><time>2026-04-05T17:01:40.428Z</time></trkpt><trkpt lat="44.1102534" lon="9.7865492"><ele>397.99999999999994</ele><time>2026-04-05T17:01:41.437Z</time></trkpt><trkpt lat="44.1102976" lon="9.7866314"><ele>398.0</ele><time>2026-04-05T17:01:42.421Z</time></trkpt><trkpt lat="44.1103373" lon="9.7867247"><ele>398.0</ele><time>2026-04-05T17:01:43.424Z</time></trkpt><trkpt lat="44.1103688" lon="9.7868222"><ele>398.0</ele><time>2026-04-05T17:01:44.428Z</time></trkpt><trkpt lat="44.1103963" lon="9.7869261"><ele>398.0</ele><time>2026-04-05T17:01:45.433Z</time></trkpt><trkpt lat="44.110421" lon="9.7870106"><ele>397.99999999999994</ele><time>2026-04-05T17:01:46.428Z</time></trkpt><trkpt lat="44.1104415" lon="9.7870952"><ele>398.0</ele><time>2026-04-05T17:01:47.451Z</time></trkpt><trkpt lat="44.1104895" lon="9.7872432"><ele>395.0</ele><time>2026-04-05T17:01:49.504Z</time></trkpt><trkpt lat="44.110545" lon="9.7873645"><ele>392.0</ele><time>2026-04-05T17:01:51.426Z</time></trkpt><trkpt lat="44.1106498" lon="9.7874716"><ele>389.0</ele><time>2026-04-05T17:01:53.428Z</time></trkpt><trkpt lat="44.1107501" lon="9.7875555"><ele>386.0</ele><time>2026-04-05T17:01:55.442Z</time></trkpt><trkpt lat="44.1108111" lon="9.7876016"><ele>383.0</ele><time>2026-04-05T17:01:56.422Z</time></trkpt><trkpt lat="44.1108757" lon="9.7876467"><ele>379.4</ele><time>2026-04-05T17:01:57.423Z</time></trkpt><trkpt lat="44.1109412" lon="9.7877099"><ele>375.79999999999995</ele><time>2026-04-05T17:01:58.426Z</time></trkpt><trkpt lat="44.110997" lon="9.7877579"><ele>372.2</ele><time>2026-04-05T17:01:59.479Z</time></trkpt><trkpt lat="44.1110925" lon="9.7878612"><ele>368.6</ele><time>2026-04-05T17:02:01.421Z</time></trkpt><trkpt lat="44.1111888" lon="9.7879094"><ele>365.0</ele><time>2026-04-05T17:02:03.42Z</time></trkpt><trkpt lat="44.1112842" lon="9.7879316"><ele>365.0</ele><time>2026-04-05T17:02:05.423Z</time></trkpt><trkpt lat="44.1114025" lon="9.7879754"><ele>365.0</ele><time>2026-04-05T17:02:07.424Z</time></trkpt><trkpt lat="44.1114743" lon="9.7880051"><ele>365.0</ele><time>2026-04-05T17:02:08.409Z</time></trkpt><trkpt lat="44.1115447" lon="9.7880191"><ele>365.0</ele><time>2026-04-05T17:02:09.423Z</time></trkpt><trkpt lat="44.111658" lon="9.7880412"><ele>365.0</ele><time>2026-04-05T17:02:11.418Z</time></trkpt><trkpt lat="44.1117774" lon="9.7880504"><ele>363.0</ele><time>2026-04-05T17:02:13.417Z</time></trkpt><trkpt lat="44.1119058" lon="9.7880243"><ele>361.0</ele><time>2026-04-05T17:02:15.466Z</time></trkpt><trkpt lat="44.1119787" lon="9.7880008"><ele>359.0</ele><time>2026-04-05T17:02:16.413Z</time></trkpt><trkpt lat="44.1120643" lon="9.787967"><ele>357.0</ele><time>2026-04-05T17:02:17.444Z</time></trkpt><trkpt lat="44.1121564" lon="9.7879212"><ele>355.0</ele><time>2026-04-05T17:02:18.41Z</time></trkpt><trkpt lat="44.1122546" lon="9.7878773"><ele>355.0</ele><time>2026-04-05T17:02:19.42Z</time></trkpt><trkpt lat="44.1123515" lon="9.7878375"><ele>355.0</ele><time>2026-04-05T17:02:20.406Z</time></trkpt><trkpt lat="44.112452" lon="9.7877975"><ele>355.0</ele><time>2026-04-05T17:02:21.417Z</time></trkpt><trkpt lat="44.1168317" lon="9.7882155"><ele>343.3333333333333</ele><time>2026-04-05T17:03:16.404Z</time></trkpt><trkpt lat="44.1170968" lon="9.7882209"><ele>331.6666666666667</ele><time>2026-04-05T17:03:19.398Z</time></trkpt><trkpt lat="44.1172039" lon="9.7882357"><ele>320.0</ele><time>2026-04-05T17:03:20.407Z</time></trkpt><trkpt lat="44.1173058" lon="9.7881894"><ele>312.5</ele><time>2026-04-05T17:03:21.402Z</time></trkpt><trkpt lat="44.1174849" lon="9.7881756"><ele>305.0</ele><time>2026-04-05T17:03:23.406Z</time></trkpt><trkpt lat="44.1178509" lon="9.7882027"><ele>305.0</ele><time>2026-04-05T17:03:33.408Z</time></trkpt><trkpt lat="44.1179507" lon="9.788283"><ele>305.0</ele><time>2026-04-05T17:03:35.41Z</time></trkpt><trkpt lat="44.1180677" lon="9.788305"><ele>305.0</ele><time>2026-04-05T17:03:36.4Z</time></trkpt><trkpt lat="44.1201637" lon="9.7880147"><ele>299.5</ele><time>2026-04-05T17:04:32.422Z</time></trkpt><trkpt lat="44.1200258" lon="9.7878018"><ele>294.0</ele><time>2026-04-05T17:04:37.428Z</time></trkpt><trkpt lat="44.1199231" lon="9.7877532"><ele>288.5</ele><time>2026-04-05T17:04:39.419Z</time></trkpt><trkpt lat="44.1198597" lon="9.7877362"><ele>283.0</ele><time>2026-04-05T17:04:40.421Z</time></trkpt><trkpt lat="44.1197371" lon="9.7877081"><ele>283.0</ele><time>2026-04-05T17:04:42.421Z</time></trkpt><trkpt lat="44.1196657" lon="9.7877008"><ele>283.0</ele><time>2026-04-05T17:04:43.41Z</time></trkpt><trkpt lat="44.1195936" lon="9.7877135"><ele>283.0</ele><time>2026-04-05T17:04:44.411Z</time></trkpt><trkpt lat="44.1194878" lon="9.7876902"><ele>283.0</ele><time>2026-04-05T17:04:46.41Z</time></trkpt><trkpt lat="44.1194008" lon="9.7876439"><ele>283.0</ele><time>2026-04-05T17:04:48.419Z</time></trkpt><trkpt lat="44.1193138" lon="9.7876564"><ele>283.0</ele><time>2026-04-05T17:04:50.406Z</time></trkpt><trkpt lat="44.1192172" lon="9.787716"><ele>283.0</ele><time>2026-04-05T17:04:52.421Z</time></trkpt><trkpt lat="44.1191347" lon="9.787685"><ele>283.0</ele><time>2026-04-05T17:04:54.42Z</time></trkpt><trkpt lat="44.1191803" lon="9.7875353"><ele>283.0</ele><time>2026-04-05T17:04:57.435Z</time></trkpt><trkpt lat="44.1192435" lon="9.7874164"><ele>283.0</ele><time>2026-04-05T17:04:59.407Z</time></trkpt><trkpt lat="44.1192969" lon="9.7873475"><ele>283.0</ele><time>2026-04-05T17:05:00.403Z</time></trkpt><trkpt lat="44.11936" lon="9.7873656"><ele>283.0</ele><time>2026-04-05T17:05:01.421Z</time></trkpt><trkpt lat="44.1194372" lon="9.7873768"><ele>283.0</ele><time>2026-04-05T17:05:02.414Z</time></trkpt><trkpt lat="44.1195477" lon="9.7874233"><ele>283.0</ele><time>2026-04-05T17:05:03.421Z</time></trkpt><trkpt lat="44.1196418" lon="9.787598"><ele>283.0</ele><time>2026-04-05T17:05:04.412Z</time></trkpt><trkpt lat="44.1197327" lon="9.7877389"><ele>283.0</ele><time>2026-04-05T17:05:05.417Z</time></trkpt><trkpt lat="44.1198302" lon="9.7878597"><ele>281.25</ele><time>2026-04-05T17:05:06.419Z</time></trkpt><trkpt lat="44.1199139" lon="9.7879285"><ele>279.5</ele><time>2026-04-05T17:05:07.41Z</time></trkpt><trkpt lat="44.1200443" lon="9.7880144"><ele>277.75</ele><time>2026-04-05T17:05:08.421Z</time></trkpt><trkpt lat="44.1201271" lon="9.7880869"><ele>276.0</ele><time>2026-04-05T17:05:09.419Z</time></trkpt><trkpt lat="44.1202297" lon="9.7881676"><ele>276.0</ele><time>2026-04-05T17:05:10.415Z</time></trkpt><trkpt lat="44.1203405" lon="9.7882084"><ele>276.0</ele><time>2026-04-05T17:05:11.454Z</time></trkpt><trkpt lat="44.1204444" lon="9.7882601"><ele>276.0</ele><time>2026-04-05T17:05:12.409Z</time></trkpt><trkpt lat="44.120546" lon="9.7883316"><ele>276.0</ele><time>2026-04-05T17:05:13.422Z</time></trkpt><trkpt lat="44.1206373" lon="9.7883829"><ele>276.0</ele><time>2026-04-05T17:05:14.413Z</time></trkpt><trkpt lat="44.1207363" lon="9.788442"><ele>277.2</ele><time>2026-04-05T17:05:15.424Z</time></trkpt><trkpt lat="44.120814" lon="9.7884895"><ele>278.40000000000003</ele><time>2026-04-05T17:05:16.419Z</time></trkpt><trkpt lat="44.1208945" lon="9.7885573"><ele>279.6</ele><time>2026-04-05T17:05:17.414Z</time></trkpt><trkpt lat="44.1209765" lon="9.7886823"><ele>280.8</ele><time>2026-04-05T17:05:18.419Z</time></trkpt><trkpt lat="44.1210424" lon="9.7887803"><ele>282.0</ele><time>2026-04-05T17:05:19.418Z</time></trkpt><trkpt lat="44.1211044" lon="9.788844"><ele>278.2</ele><time>2026-04-05T17:05:20.422Z</time></trkpt><trkpt lat="44.121169" lon="9.7888962"><ele>274.4</ele><time>2026-04-05T17:05:21.404Z</time></trkpt><trkpt lat="44.1212383" lon="9.7889137"><ele>270.6</ele><time>2026-04-05T17:05:22.42Z</time></trkpt><trkpt lat="44.1213695" lon="9.788882"><ele>266.8</ele><time>2026-04-05T17:05:24.411Z</time></trkpt><trkpt lat="44.1214858" lon="9.7887984"><ele>263.0</ele><time>2026-04-05T17:05:26.417Z</time></trkpt><trkpt lat="44.1215401" lon="9.7887513"><ele>261.5</ele><time>2026-04-05T17:05:27.42Z</time></trkpt><trkpt lat="44.1216028" lon="9.7886989"><ele>260.0</ele><time>2026-04-05T17:05:28.408Z</time></trkpt><trkpt lat="44.1216684" lon="9.7886629"><ele>258.5</ele><time>2026-04-05T17:05:29.45Z</time></trkpt><trkpt lat="44.1217463" lon="9.7886436"><ele>257.0</ele><time>2026-04-05T17:05:30.417Z</time></trkpt><trkpt lat="44.121836" lon="9.7886521"><ele>255.50000000000003</ele><time>2026-04-05T17:05:31.413Z</time></trkpt><trkpt lat="44.1219072" lon="9.7886707"><ele>254.0</ele><time>2026-04-05T17:05:32.455Z</time></trkpt><trkpt lat="44.121978" lon="9.7887205"><ele>254.00000000000003</ele><time>2026-04-05T17:05:33.418Z</time></trkpt><trkpt lat="44.1220529" lon="9.7887622"><ele>254.0</ele><time>2026-04-05T17:05:34.421Z</time></trkpt><trkpt lat="44.1221299" lon="9.7888108"><ele>254.0</ele><time>2026-04-05T17:05:35.407Z</time></trkpt><trkpt lat="44.122195" lon="9.7888823"><ele>254.0</ele><time>2026-04-05T17:05:36.42Z</time></trkpt><trkpt lat="44.1222547" lon="9.7889307"><ele>254.00000000000003</ele><time>2026-04-05T17:05:37.419Z</time></trkpt><trkpt lat="44.1223169" lon="9.7889811"><ele>254.0</ele><time>2026-04-05T17:05:38.416Z</time></trkpt><trkpt lat="44.12238" lon="9.7890099"><ele>253.00000000000003</ele><time>2026-04-05T17:05:39.448Z</time></trkpt><trkpt lat="44.1224564" lon="9.7890257"><ele>252.0</ele><time>2026-04-05T17:05:40.42Z</time></trkpt><trkpt lat="44.1225789" lon="9.7889757"><ele>251.0</ele><time>2026-04-05T17:05:42.419Z</time></trkpt><trkpt lat="44.1226444" lon="9.7889449"><ele>250.0</ele><time>2026-04-05T17:05:43.413Z</time></trkpt><trkpt lat="44.1227123" lon="9.7889111"><ele>249.00000000000003</ele><time>2026-04-05T17:05:44.47Z</time></trkpt><trkpt lat="44.1227861" lon="9.7888675"><ele>248.0</ele><time>2026-04-05T17:05:45.414Z</time></trkpt><trkpt lat="44.1228647" lon="9.7888298"><ele>248.00000000000003</ele><time>2026-04-05T17:05:46.436Z</time></trkpt><trkpt lat="44.1229481" lon="9.7888254"><ele>248.0</ele><time>2026-04-05T17:05:47.427Z</time></trkpt><trkpt lat="44.1230179" lon="9.7888796"><ele>248.0</ele><time>2026-04-05T17:05:48.418Z</time></trkpt><trkpt lat="44.1230672" lon="9.7889759"><ele>248.0</ele><time>2026-04-05T17:05:49.44Z</time></trkpt><trkpt lat="44.1231289" lon="9.7890748"><ele>248.00000000000003</ele><time>2026-04-05T17:05:50.422Z</time></trkpt><trkpt lat="44.1231996" lon="9.7891343"><ele>248.0</ele><time>2026-04-05T17:05:51.415Z</time></trkpt><trkpt lat="44.1232726" lon="9.7891695"><ele>247.50000000000003</ele><time>2026-04-05T17:05:52.424Z</time></trkpt><trkpt lat="44.1233483" lon="9.7891916"><ele>247.0</ele><time>2026-04-05T17:05:53.429Z</time></trkpt><trkpt lat="44.123432" lon="9.7891975"><ele>246.5</ele><time>2026-04-05T17:05:54.419Z</time></trkpt><trkpt lat="44.1235016" lon="9.7891879"><ele>246.0</ele><time>2026-04-05T17:05:55.427Z</time></trkpt><trkpt lat="44.1236159" lon="9.7891718"><ele>245.50000000000003</ele><time>2026-04-05T17:05:57.407Z</time></trkpt><trkpt lat="44.1236948" lon="9.7891442"><ele>245.0</ele><time>2026-04-05T17:05:58.414Z</time></trkpt><trkpt lat="44.1237695" lon="9.7891085"><ele>245.00000000000003</ele><time>2026-04-05T17:05:59.476Z</time></trkpt><trkpt lat="44.1238533" lon="9.7890841"><ele>245.0</ele><time>2026-04-05T17:06:00.415Z</time></trkpt><trkpt lat="44.1239319" lon="9.789072"><ele>245.0</ele><time>2026-04-05T17:06:01.434Z</time></trkpt><trkpt lat="44.124029" lon="9.7890619"><ele>245.0</ele><time>2026-04-05T17:06:02.411Z</time></trkpt><trkpt lat="44.1241219" lon="9.7890505"><ele>245.00000000000003</ele><time>2026-04-05T17:06:03.426Z</time></trkpt><trkpt lat="44.1242005" lon="9.789037"><ele>245.0</ele><time>2026-04-05T17:06:04.409Z</time></trkpt><trkpt lat="44.1242691" lon="9.7890091"><ele>243.6</ele><time>2026-04-05T17:06:05.429Z</time></trkpt><trkpt lat="44.1243704" lon="9.7888875"><ele>242.2</ele><time>2026-04-05T17:06:07.415Z</time></trkpt><trkpt lat="44.1244216" lon="9.788816"><ele>240.8</ele><time>2026-04-05T17:06:08.423Z</time></trkpt><trkpt lat="44.1244902" lon="9.7886718"><ele>239.4</ele><time>2026-04-05T17:06:10.42Z</time></trkpt><trkpt lat="44.1245218" lon="9.788533"><ele>238.0</ele><time>2026-04-05T17:06:12.42Z</time></trkpt><trkpt lat="44.124596" lon="9.7885473"><ele>238.0</ele><time>2026-04-05T17:06:15.419Z</time></trkpt><trkpt lat="44.1245817" lon="9.7886639"><ele>238.0</ele><time>2026-04-05T17:06:18.414Z</time></trkpt><trkpt lat="44.1245666" lon="9.7887499"><ele>238.0</ele><time>2026-04-05T17:06:21.413Z</time></trkpt><trkpt lat="44.1245407" lon="9.7888457"><ele>238.0</ele><time>2026-04-05T17:06:23.422Z</time></trkpt><trkpt lat="44.1244977" lon="9.789"><ele>238.0</ele><time>2026-04-05T17:06:25.421Z</time></trkpt><trkpt lat="44.1244444" lon="9.7891322"><ele>238.0</ele><time>2026-04-05T17:06:27.426Z</time></trkpt><trkpt lat="44.1243867" lon="9.7891907"><ele>238.0</ele><time>2026-04-05T17:06:28.422Z</time></trkpt><trkpt lat="44.1243399" lon="9.7892633"><ele>238.0</ele><time>2026-04-05T17:06:29.426Z</time></trkpt><trkpt lat="44.1242931" lon="9.7893287"><ele>238.0</ele><time>2026-04-05T17:06:30.412Z</time></trkpt><trkpt lat="44.1242377" lon="9.7893923"><ele>238.0</ele><time>2026-04-05T17:06:31.423Z</time></trkpt><trkpt lat="44.1241779" lon="9.7894766"><ele>238.0</ele><time>2026-04-05T17:06:32.409Z</time></trkpt><trkpt lat="44.1241151" lon="9.7895457"><ele>238.0</ele><time>2026-04-05T17:06:33.425Z</time></trkpt><trkpt lat="44.1240511" lon="9.7896132"><ele>235.49999999999997</ele><time>2026-04-05T17:06:34.424Z</time></trkpt><trkpt lat="44.123985" lon="9.7896901"><ele>233.0</ele><time>2026-04-05T17:06:35.494Z</time></trkpt><trkpt lat="44.1239207" lon="9.789765"><ele>230.5</ele><time>2026-04-05T17:06:36.419Z</time></trkpt><trkpt lat="44.1238592" lon="9.789841"><ele>228.0</ele><time>2026-04-05T17:06:37.436Z</time></trkpt><trkpt lat="44.123789" lon="9.789914"><ele>225.49999999999997</ele><time>2026-04-05T17:06:38.432Z</time></trkpt><trkpt lat="44.1237158" lon="9.7899785"><ele>223.0</ele><time>2026-04-05T17:06:39.419Z</time></trkpt><trkpt lat="44.12363" lon="9.7900437"><ele>223.0</ele><time>2026-04-05T17:06:40.423Z</time></trkpt><trkpt lat="44.1235435" lon="9.7900872"><ele>223.0</ele><time>2026-04-05T17:06:41.442Z</time></trkpt><trkpt lat="44.1234512" lon="9.7901124"><ele>223.0</ele><time>2026-04-05T17:06:42.427Z</time></trkpt><trkpt lat="44.1233593" lon="9.790128"><ele>223.0</ele><time>2026-04-05T17:06:43.428Z</time></trkpt><trkpt lat="44.1232697" lon="9.7901508"><ele>223.0</ele><time>2026-04-05T17:06:44.423Z</time></trkpt><trkpt lat="44.1231782" lon="9.7901778"><ele>220.8</ele><time>2026-04-05T17:06:45.424Z</time></trkpt><trkpt lat="44.1230856" lon="9.7902"><ele>218.60000000000002</ele><time>2026-04-05T17:06:46.421Z</time></trkpt><trkpt lat="44.1229949" lon="9.7902373"><ele>216.39999999999998</ele><time>2026-04-05T17:06:47.427Z</time></trkpt><trkpt lat="44.1229116" lon="9.790294"><ele>214.2</ele><time>2026-04-05T17:06:48.416Z</time></trkpt><trkpt lat="44.12284" lon="9.79038"><ele>212.0</ele><time>2026-04-05T17:06:49.428Z</time></trkpt><trkpt lat="44.1227822" lon="9.7904704"><ele>212.00000000000003</ele><time>2026-04-05T17:06:50.423Z</time></trkpt><trkpt lat="44.1227244" lon="9.7905705"><ele>212.0</ele><time>2026-04-05T17:06:51.426Z</time></trkpt><trkpt lat="44.122677" lon="9.7906492"><ele>212.0</ele><time>2026-04-05T17:06:52.424Z</time></trkpt><trkpt lat="44.122624" lon="9.7907211"><ele>212.0</ele><time>2026-04-05T17:06:53.424Z</time></trkpt><trkpt lat="44.1225592" lon="9.7907826"><ele>212.00000000000003</ele><time>2026-04-05T17:06:54.421Z</time></trkpt><trkpt lat="44.1224825" lon="9.7908198"><ele>212.0</ele><time>2026-04-05T17:06:55.427Z</time></trkpt><trkpt lat="44.1224025" lon="9.7908464"><ele>211.83333333333334</ele><time>2026-04-05T17:06:56.422Z</time></trkpt><trkpt lat="44.1223218" lon="9.7908736"><ele>211.66666666666669</ele><time>2026-04-05T17:06:57.419Z</time></trkpt><trkpt lat="44.1222365" lon="9.7909097"><ele>211.5</ele><time>2026-04-05T17:06:58.428Z</time></trkpt><trkpt lat="44.1221567" lon="9.7909575"><ele>211.33333333333331</ele><time>2026-04-05T17:06:59.417Z</time></trkpt><trkpt lat="44.1220842" lon="9.7910319"><ele>211.16666666666666</ele><time>2026-04-05T17:07:00.427Z</time></trkpt><trkpt lat="44.1220194" lon="9.7911155"><ele>211.0</ele><time>2026-04-05T17:07:01.421Z</time></trkpt><trkpt lat="44.1219634" lon="9.7912055"><ele>210.99999999999997</ele><time>2026-04-05T17:07:02.421Z</time></trkpt><trkpt lat="44.1219039" lon="9.7912976"><ele>211.0</ele><time>2026-04-05T17:07:03.417Z</time></trkpt><trkpt lat="44.1218476" lon="9.7913934"><ele>211.0</ele><time>2026-04-05T17:07:04.428Z</time></trkpt><trkpt lat="44.1218008" lon="9.7914891"><ele>211.0</ele><time>2026-04-05T17:07:05.428Z</time></trkpt><trkpt lat="44.1217747" lon="9.7915953"><ele>210.99999999999997</ele><time>2026-04-05T17:07:06.426Z</time></trkpt><trkpt lat="44.1217563" lon="9.7917084"><ele>211.0</ele><time>2026-04-05T17:07:07.426Z</time></trkpt><trkpt lat="44.1217507" lon="9.7918262"><ele>209.33333333333331</ele><time>2026-04-05T17:07:08.418Z</time></trkpt><trkpt lat="44.121749" lon="9.7919422"><ele>207.66666666666666</ele><time>2026-04-05T17:07:09.43Z</time></trkpt><trkpt lat="44.1217434" lon="9.7920603"><ele>206.0</ele><time>2026-04-05T17:07:10.416Z</time></trkpt><trkpt lat="44.1217296" lon="9.7921783"><ele>204.33333333333331</ele><time>2026-04-05T17:07:11.433Z</time></trkpt><trkpt lat="44.1217053" lon="9.7922914"><ele>202.66666666666666</ele><time>2026-04-05T17:07:12.423Z</time></trkpt><trkpt lat="44.1216695" lon="9.7924046"><ele>201.0</ele><time>2026-04-05T17:07:13.426Z</time></trkpt><trkpt lat="44.1216299" lon="9.7925025"><ele>201.0</ele><time>2026-04-05T17:07:14.423Z</time></trkpt><trkpt lat="44.1215886" lon="9.7926017"><ele>201.0</ele><time>2026-04-05T17:07:15.436Z</time></trkpt><trkpt lat="44.1215733" lon="9.7926941"><ele>201.0</ele><time>2026-04-05T17:07:16.425Z</time></trkpt><trkpt lat="44.1216045" lon="9.7928532"><ele>201.0</ele><time>2026-04-05T17:07:18.507Z</time></trkpt><trkpt lat="44.1217036" lon="9.7929442"><ele>201.0</ele><time>2026-04-05T17:07:20.432Z</time></trkpt><trkpt lat="44.121821" lon="9.7929305"><ele>201.0</ele><time>2026-04-05T17:07:22.425Z</time></trkpt><trkpt lat="44.1218706" lon="9.7928748"><ele>201.0</ele><time>2026-04-05T17:07:23.458Z</time></trkpt><trkpt lat="44.1219404" lon="9.792751"><ele>201.0</ele><time>2026-04-05T17:07:25.431Z</time></trkpt><trkpt lat="44.1219923" lon="9.792585"><ele>201.0</ele><time>2026-04-05T17:07:27.43Z</time></trkpt><trkpt lat="44.1220104" lon="9.7924862"><ele>201.0</ele><time>2026-04-05T17:07:28.418Z</time></trkpt><trkpt lat="44.1220378" lon="9.7923826"><ele>201.0</ele><time>2026-04-05T17:07:29.425Z</time></trkpt><trkpt lat="44.1220671" lon="9.7922901"><ele>201.0</ele><time>2026-04-05T17:07:30.425Z</time></trkpt><trkpt lat="44.1221078" lon="9.792214"><ele>201.0</ele><time>2026-04-05T17:07:31.506Z</time></trkpt><trkpt lat="44.1221588" lon="9.7921557"><ele>201.0</ele><time>2026-04-05T17:07:32.42Z</time></trkpt><trkpt lat="44.122217" lon="9.7920981"><ele>201.0</ele><time>2026-04-05T17:07:33.424Z</time></trkpt><trkpt lat="44.1222854" lon="9.7920414"><ele>201.0</ele><time>2026-04-05T17:07:34.428Z</time></trkpt><trkpt lat="44.1223574" lon="9.7920057"><ele>201.0</ele><time>2026-04-05T17:07:35.416Z</time></trkpt><trkpt lat="44.122441" lon="9.7919747"><ele>197.5</ele><time>2026-04-05T17:07:36.423Z</time></trkpt><trkpt lat="44.1225224" lon="9.7919544"><ele>194.0</ele><time>2026-04-05T17:07:37.428Z</time></trkpt><trkpt lat="44.1226026" lon="9.791938"><ele>190.5</ele><time>2026-04-05T17:07:38.425Z</time></trkpt><trkpt lat="44.1226846" lon="9.791923"><ele>187.0</ele><time>2026-04-05T17:07:39.426Z</time></trkpt><trkpt lat="44.1227703" lon="9.7919052"><ele>183.5</ele><time>2026-04-05T17:07:40.42Z</time></trkpt><trkpt lat="44.122852" lon="9.7918861"><ele>180.0</ele><time>2026-04-05T17:07:41.416Z</time></trkpt><trkpt lat="44.1229379" lon="9.7918761"><ele>180.0</ele><time>2026-04-05T17:07:42.486Z</time></trkpt><trkpt lat="44.123031" lon="9.7918633"><ele>180.0</ele><time>2026-04-05T17:07:43.418Z</time></trkpt><trkpt lat="44.1231239" lon="9.7918543"><ele>180.0</ele><time>2026-04-05T17:07:44.495Z</time></trkpt><trkpt lat="44.1232127" lon="9.7918418"><ele>180.0</ele><time>2026-04-05T17:07:45.415Z</time></trkpt><trkpt lat="44.1232999" lon="9.7918287"><ele>180.0</ele><time>2026-04-05T17:07:46.421Z</time></trkpt><trkpt lat="44.1233828" lon="9.7918077"><ele>180.0</ele><time>2026-04-05T17:07:47.426Z</time></trkpt><trkpt lat="44.1234659" lon="9.7917894"><ele>181.16666666666666</ele><time>2026-04-05T17:07:48.423Z</time></trkpt><trkpt lat="44.1235496" lon="9.7917488"><ele>182.33333333333334</ele><time>2026-04-05T17:07:49.457Z</time></trkpt><trkpt lat="44.1236205" lon="9.7916945"><ele>183.5</ele><time>2026-04-05T17:07:50.424Z</time></trkpt><trkpt lat="44.1236846" lon="9.7916256"><ele>184.66666666666669</ele><time>2026-04-05T17:07:51.436Z</time></trkpt><trkpt lat="44.1237478" lon="9.79154"><ele>185.83333333333334</ele><time>2026-04-05T17:07:52.425Z</time></trkpt><trkpt lat="44.1238135" lon="9.7914564"><ele>187.0</ele><time>2026-04-05T17:07:53.423Z</time></trkpt><trkpt lat="44.1238879" lon="9.7913696"><ele>187.0</ele><time>2026-04-05T17:07:54.422Z</time></trkpt><trkpt lat="44.1239642" lon="9.7912919"><ele>187.0</ele><time>2026-04-05T17:07:55.423Z</time></trkpt><trkpt lat="44.1240449" lon="9.7912207"><ele>187.0</ele><time>2026-04-05T17:07:56.424Z</time></trkpt><trkpt lat="44.1241212" lon="9.7911776"><ele>187.0</ele><time>2026-04-05T17:07:57.427Z</time></trkpt><trkpt lat="44.1242062" lon="9.7911406"><ele>187.0</ele><time>2026-04-05T17:07:58.42Z</time></trkpt><trkpt lat="44.1242738" lon="9.791115"><ele>187.0</ele><time>2026-04-05T17:07:59.426Z</time></trkpt><trkpt lat="44.124376" lon="9.7911433"><ele>185.16666666666669</ele><time>2026-04-05T17:08:01.429Z</time></trkpt><trkpt lat="44.1243973" lon="9.7912767"><ele>183.33333333333334</ele><time>2026-04-05T17:08:03.431Z</time></trkpt><trkpt lat="44.1243873" lon="9.7914423"><ele>181.5</ele><time>2026-04-05T17:08:05.418Z</time></trkpt><trkpt lat="44.1243847" lon="9.7915328"><ele>179.66666666666666</ele><time>2026-04-05T17:08:06.43Z</time></trkpt><trkpt lat="44.1243789" lon="9.7916253"><ele>177.83333333333331</ele><time>2026-04-05T17:08:07.423Z</time></trkpt><trkpt lat="44.1243782" lon="9.7917178"><ele>176.0</ele><time>2026-04-05T17:08:08.424Z</time></trkpt><trkpt lat="44.124376" lon="9.7918133"><ele>174.0</ele><time>2026-04-05T17:08:09.414Z</time></trkpt><trkpt lat="44.1243786" lon="9.7919164"><ele>172.0</ele><time>2026-04-05T17:08:10.424Z</time></trkpt><trkpt lat="44.1243808" lon="9.7920116"><ele>170.0</ele><time>2026-04-05T17:08:11.425Z</time></trkpt><trkpt lat="44.1243857" lon="9.79212"><ele>168.0</ele><time>2026-04-05T17:08:12.426Z</time></trkpt><trkpt lat="44.1243951" lon="9.7922429"><ele>166.0</ele><time>2026-04-05T17:08:13.53Z</time></trkpt><trkpt lat="44.1243959" lon="9.7923603"><ele>164.0</ele><time>2026-04-05T17:08:14.431Z</time></trkpt><trkpt lat="44.124399" lon="9.7924789"><ele>164.0</ele><time>2026-04-05T17:08:15.429Z</time></trkpt><trkpt lat="44.124398" lon="9.7926009"><ele>164.0</ele><time>2026-04-05T17:08:16.42Z</time></trkpt><trkpt lat="44.1243912" lon="9.7927253"><ele>164.0</ele><time>2026-04-05T17:08:17.419Z</time></trkpt><trkpt lat="44.1243827" lon="9.792843"><ele>164.0</ele><time>2026-04-05T17:08:18.419Z</time></trkpt><trkpt lat="44.1243657" lon="9.7929433"><ele>164.0</ele><time>2026-04-05T17:08:19.428Z</time></trkpt><trkpt lat="44.1243404" lon="9.7930452"><ele>164.0</ele><time>2026-04-05T17:08:20.422Z</time></trkpt><trkpt lat="44.1243052" lon="9.7931495"><ele>162.5</ele><time>2026-04-05T17:08:21.441Z</time></trkpt><trkpt lat="44.1242665" lon="9.7932533"><ele>161.0</ele><time>2026-04-05T17:08:22.419Z</time></trkpt><trkpt lat="44.1242218" lon="9.7933498"><ele>159.5</ele><time>2026-04-05T17:08:23.42Z</time></trkpt><trkpt lat="44.1241725" lon="9.7934459"><ele>158.0</ele><time>2026-04-05T17:08:24.428Z</time></trkpt><trkpt lat="44.1241211" lon="9.7935436"><ele>156.5</ele><time>2026-04-05T17:08:25.422Z</time></trkpt><trkpt lat="44.1240757" lon="9.7936368"><ele>155.0</ele><time>2026-04-05T17:08:26.434Z</time></trkpt><trkpt lat="44.1240368" lon="9.793719"><ele>153.2</ele><time>2026-04-05T17:08:27.49Z</time></trkpt><trkpt lat="44.1240186" lon="9.7938555"><ele>151.4</ele><time>2026-04-05T17:08:29.434Z</time></trkpt><trkpt lat="44.1241021" lon="9.7939877"><ele>149.6</ele><time>2026-04-05T17:08:31.425Z</time></trkpt><trkpt lat="44.1241674" lon="9.7940372"><ele>147.8</ele><time>2026-04-05T17:08:32.419Z</time></trkpt><trkpt lat="44.124227" lon="9.7941016"><ele>146.0</ele><time>2026-04-05T17:08:33.411Z</time></trkpt><trkpt lat="44.1242878" lon="9.7941736"><ele>146.0</ele><time>2026-04-05T17:08:34.419Z</time></trkpt><trkpt lat="44.1243453" lon="9.7942509"><ele>146.0</ele><time>2026-04-05T17:08:35.416Z</time></trkpt><trkpt lat="44.1244013" lon="9.7943399"><ele>146.0</ele><time>2026-04-05T17:08:36.42Z</time></trkpt><trkpt lat="44.1244484" lon="9.7944298"><ele>146.0</ele><time>2026-04-05T17:08:37.448Z</time></trkpt><trkpt lat="44.1244886" lon="9.7945309"><ele>146.0</ele><time>2026-04-05T17:08:38.419Z</time></trkpt><trkpt lat="44.1245249" lon="9.7946376"><ele>146.0</ele><time>2026-04-05T17:08:39.413Z</time></trkpt><trkpt lat="44.1245572" lon="9.7947386"><ele>144.0</ele><time>2026-04-05T17:08:40.429Z</time></trkpt><trkpt lat="44.1245605" lon="9.7948336"><ele>142.0</ele><time>2026-04-05T17:08:41.422Z</time></trkpt><trkpt lat="44.1245403" lon="9.7949476"><ele>140.0</ele><time>2026-04-05T17:08:42.419Z</time></trkpt><trkpt lat="44.1245241" lon="9.7950563"><ele>138.0</ele><time>2026-04-05T17:08:43.443Z</time></trkpt><trkpt lat="44.1245062" lon="9.7951589"><ele>136.0</ele><time>2026-04-05T17:08:44.416Z</time></trkpt><trkpt lat="44.1244883" lon="9.7952632"><ele>134.0</ele><time>2026-04-05T17:08:45.413Z</time></trkpt><trkpt lat="44.1244637" lon="9.7953578"><ele>134.0</ele><time>2026-04-05T17:08:46.417Z</time></trkpt><trkpt lat="44.1244347" lon="9.7954359"><ele>134.0</ele><time>2026-04-05T17:08:47.424Z</time></trkpt><trkpt lat="44.1243487" lon="9.7955147"><ele>134.0</ele><time>2026-04-05T17:08:49.421Z</time></trkpt><trkpt lat="44.1242679" lon="9.7954361"><ele>134.0</ele><time>2026-04-05T17:08:51.414Z</time></trkpt><trkpt lat="44.1242791" lon="9.7952848"><ele>134.0</ele><time>2026-04-05T17:08:53.416Z</time></trkpt><trkpt lat="44.1243207" lon="9.7951502"><ele>134.0</ele><time>2026-04-05T17:08:55.454Z</time></trkpt><trkpt lat="44.1243512" lon="9.7950036"><ele>134.0</ele><time>2026-04-05T17:08:57.421Z</time></trkpt><trkpt lat="44.1243443" lon="9.7948406"><ele>134.0</ele><time>2026-04-05T17:08:59.428Z</time></trkpt><trkpt lat="44.1242684" lon="9.7947082"><ele>134.0</ele><time>2026-04-05T17:09:01.422Z</time></trkpt><trkpt lat="44.1242208" lon="9.7946503"><ele>134.0</ele><time>2026-04-05T17:09:02.422Z</time></trkpt><trkpt lat="44.1241054" lon="9.7946034"><ele>132.85714285714286</ele><time>2026-04-05T17:09:04.416Z</time></trkpt><trkpt lat="44.1240393" lon="9.7946039"><ele>131.71428571428572</ele><time>2026-04-05T17:09:05.415Z</time></trkpt><trkpt lat="44.1239646" lon="9.794619"><ele>130.57142857142856</ele><time>2026-04-05T17:09:06.413Z</time></trkpt><trkpt lat="44.1238903" lon="9.7946511"><ele>129.42857142857144</ele><time>2026-04-05T17:09:07.418Z</time></trkpt><trkpt lat="44.1238189" lon="9.7946782"><ele>128.28571428571428</ele><time>2026-04-05T17:09:08.425Z</time></trkpt><trkpt lat="44.1237454" lon="9.7947027"><ele>127.14285714285714</ele><time>2026-04-05T17:09:09.418Z</time></trkpt><trkpt lat="44.1236696" lon="9.7947317"><ele>126.0</ele><time>2026-04-05T17:09:10.414Z</time></trkpt><trkpt lat="44.1235889" lon="9.7947555"><ele>126.0</ele><time>2026-04-05T17:09:11.446Z</time></trkpt><trkpt lat="44.1235096" lon="9.7947759"><ele>126.0</ele><time>2026-04-05T17:09:12.414Z</time></trkpt><trkpt lat="44.1234474" lon="9.7948087"><ele>126.0</ele><time>2026-04-05T17:09:13.423Z</time></trkpt><trkpt lat="44.1233911" lon="9.7949313"><ele>126.0</ele><time>2026-04-05T17:09:15.424Z</time></trkpt><trkpt lat="44.1234715" lon="9.7950297"><ele>126.0</ele><time>2026-04-05T17:09:17.424Z</time></trkpt><trkpt lat="44.1235811" lon="9.7950219"><ele>126.0</ele><time>2026-04-05T17:09:19.413Z</time></trkpt><trkpt lat="44.1236451" lon="9.7949955"><ele>126.0</ele><time>2026-04-05T17:09:20.423Z</time></trkpt><trkpt lat="44.123707" lon="9.7949672"><ele>126.0</ele><time>2026-04-05T17:09:21.417Z</time></trkpt><trkpt lat="44.1237725" lon="9.7949487"><ele>126.0</ele><time>2026-04-05T17:09:22.438Z</time></trkpt><trkpt lat="44.123891" lon="9.7949381"><ele>126.0</ele><time>2026-04-05T17:09:24.427Z</time></trkpt><trkpt lat="44.1239183" lon="9.7950455"><ele>126.0</ele><time>2026-04-05T17:09:26.413Z</time></trkpt><trkpt lat="44.1238638" lon="9.7951504"><ele>123.83333333333333</ele><time>2026-04-05T17:09:28.411Z</time></trkpt><trkpt lat="44.1237543" lon="9.7952226"><ele>121.66666666666666</ele><time>2026-04-05T17:09:30.419Z</time></trkpt><trkpt lat="44.1236917" lon="9.7952628"><ele>119.5</ele><time>2026-04-05T17:09:31.421Z</time></trkpt><trkpt lat="44.1236347" lon="9.7953007"><ele>117.33333333333333</ele><time>2026-04-05T17:09:32.418Z</time></trkpt><trkpt lat="44.1235722" lon="9.7953358"><ele>115.16666666666666</ele><time>2026-04-05T17:09:33.41Z</time></trkpt><trkpt lat="44.1235081" lon="9.7953705"><ele>113.0</ele><time>2026-04-05T17:09:34.425Z</time></trkpt><trkpt lat="44.1234414" lon="9.7954106"><ele>113.0</ele><time>2026-04-05T17:09:35.416Z</time></trkpt><trkpt lat="44.123382" lon="9.7954469"><ele>113.00000000000001</ele><time>2026-04-05T17:09:36.428Z</time></trkpt><trkpt lat="44.1232867" lon="9.7955266"><ele>113.00000000000001</ele><time>2026-04-05T17:09:38.425Z</time></trkpt><trkpt lat="44.123263" lon="9.7956411"><ele>113.0</ele><time>2026-04-05T17:09:40.419Z</time></trkpt><trkpt lat="44.1233626" lon="9.7956691"><ele>113.0</ele><time>2026-04-05T17:09:42.426Z</time></trkpt><trkpt lat="44.1234708" lon="9.7956522"><ele>112.99999999999999</ele><time>2026-04-05T17:09:44.429Z</time></trkpt><trkpt lat="44.1235859" lon="9.7956153"><ele>113.0</ele><time>2026-04-05T17:09:46.426Z</time></trkpt><trkpt lat="44.1236523" lon="9.7955936"><ele>113.0</ele><time>2026-04-05T17:09:47.433Z</time></trkpt><trkpt lat="44.1237304" lon="9.7955789"><ele>113.0</ele><time>2026-04-05T17:09:48.434Z</time></trkpt><trkpt lat="44.1238046" lon="9.7955681"><ele>112.99999999999999</ele><time>2026-04-05T17:09:49.424Z</time></trkpt><trkpt lat="44.123872" lon="9.7955971"><ele>113.0</ele><time>2026-04-05T17:09:50.413Z</time></trkpt><trkpt lat="44.1239221" lon="9.7956902"><ele>112.99999999999999</ele><time>2026-04-05T17:09:51.421Z</time></trkpt><trkpt lat="44.1239558" lon="9.7957904"><ele>113.0</ele><time>2026-04-05T17:09:52.42Z</time></trkpt><trkpt lat="44.1239787" lon="9.7958943"><ele>113.0</ele><time>2026-04-05T17:09:53.419Z</time></trkpt><trkpt lat="44.1239852" lon="9.7960057"><ele>113.0</ele><time>2026-04-05T17:09:54.419Z</time></trkpt><trkpt lat="44.123985" lon="9.7961215"><ele>112.99999999999999</ele><time>2026-04-05T17:09:55.419Z</time></trkpt><trkpt lat="44.1239803" lon="9.7962325"><ele>113.0</ele><time>2026-04-05T17:09:56.424Z</time></trkpt><trkpt lat="44.1239631" lon="9.7963408"><ele>109.4</ele><time>2026-04-05T17:09:57.438Z</time></trkpt><trkpt lat="44.1239317" lon="9.7964489"><ele>105.80000000000001</ele><time>2026-04-05T17:09:58.42Z</time></trkpt><trkpt lat="44.1238875" lon="9.7965665"><ele>102.2</ele><time>2026-04-05T17:09:59.424Z</time></trkpt><trkpt lat="44.1238458" lon="9.7966849"><ele>98.6</ele><time>2026-04-05T17:10:00.425Z</time></trkpt><trkpt lat="44.1238031" lon="9.7967976"><ele>95.0</ele><time>2026-04-05T17:10:01.424Z</time></trkpt><trkpt lat="44.1237655" lon="9.7969108"><ele>94.0</ele><time>2026-04-05T17:10:02.439Z</time></trkpt><trkpt lat="44.1237265" lon="9.797018"><ele>93.0</ele><time>2026-04-05T17:10:03.424Z</time></trkpt><trkpt lat="44.1236884" lon="9.7971282"><ele>92.0</ele><time>2026-04-05T17:10:04.418Z</time></trkpt><trkpt lat="44.1236546" lon="9.7972405"><ele>91.0</ele><time>2026-04-05T17:10:05.428Z</time></trkpt><trkpt lat="44.123632" lon="9.7973575"><ele>90.0</ele><time>2026-04-05T17:10:06.424Z</time></trkpt><trkpt lat="44.1236247" lon="9.7974792"><ele>89.0</ele><time>2026-04-05T17:10:07.453Z</time></trkpt><trkpt lat="44.1236352" lon="9.7976033"><ele>88.16666666666667</ele><time>2026-04-05T17:10:08.418Z</time></trkpt><trkpt lat="44.123651" lon="9.7977214"><ele>87.33333333333334</ele><time>2026-04-05T17:10:09.42Z</time></trkpt><trkpt lat="44.1236756" lon="9.7978352"><ele>86.5</ele><time>2026-04-05T17:10:10.411Z</time></trkpt><trkpt lat="44.1237164" lon="9.7979608"><ele>85.66666666666667</ele><time>2026-04-05T17:10:11.422Z</time></trkpt><trkpt lat="44.1237678" lon="9.7980606"><ele>84.83333333333333</ele><time>2026-04-05T17:10:12.419Z</time></trkpt><trkpt lat="44.1238143" lon="9.7981483"><ele>84.0</ele><time>2026-04-05T17:10:13.42Z</time></trkpt><trkpt lat="44.1238581" lon="9.7982259"><ele>84.0</ele><time>2026-04-05T17:10:14.423Z</time></trkpt><trkpt lat="44.1238845" lon="9.798354"><ele>84.0</ele><time>2026-04-05T17:10:16.492Z</time></trkpt><trkpt lat="44.1238109" lon="9.7984589"><ele>84.0</ele><time>2026-04-05T17:10:18.435Z</time></trkpt><trkpt lat="44.123703" lon="9.7984711"><ele>84.0</ele><time>2026-04-05T17:10:20.419Z</time></trkpt><trkpt lat="44.1236141" lon="9.7984059"><ele>84.0</ele><time>2026-04-05T17:10:22.419Z</time></trkpt><trkpt lat="44.1235434" lon="9.7982903"><ele>84.0</ele><time>2026-04-05T17:10:24.412Z</time></trkpt><trkpt lat="44.1235027" lon="9.7982229"><ele>84.0</ele><time>2026-04-05T17:10:25.431Z</time></trkpt><trkpt lat="44.1234608" lon="9.79815"><ele>84.0</ele><time>2026-04-05T17:10:26.417Z</time></trkpt><trkpt lat="44.1234167" lon="9.7980746"><ele>84.0</ele><time>2026-04-05T17:10:27.424Z</time></trkpt><trkpt lat="44.1233678" lon="9.7980001"><ele>84.0</ele><time>2026-04-05T17:10:28.423Z</time></trkpt><trkpt lat="44.1233205" lon="9.7979152"><ele>84.0</ele><time>2026-04-05T17:10:29.41Z</time></trkpt><trkpt lat="44.1232684" lon="9.7978286"><ele>84.0</ele><time>2026-04-05T17:10:30.488Z</time></trkpt><trkpt lat="44.1232212" lon="9.7977438"><ele>80.0</ele><time>2026-04-05T17:10:31.427Z</time></trkpt><trkpt lat="44.1231684" lon="9.7976648"><ele>76.0</ele><time>2026-04-05T17:10:32.421Z</time></trkpt><trkpt lat="44.1231178" lon="9.7975852"><ele>72.0</ele><time>2026-04-05T17:10:33.43Z</time></trkpt><trkpt lat="44.1230617" lon="9.7975282"><ele>68.0</ele><time>2026-04-05T17:10:34.424Z</time></trkpt><trkpt lat="44.1229459" lon="9.7975586"><ele>64.0</ele><time>2026-04-05T17:10:36.416Z</time></trkpt><trkpt lat="44.1228814" lon="9.797685"><ele>63.83333333333333</ele><time>2026-04-05T17:10:38.421Z</time></trkpt><trkpt lat="44.1228839" lon="9.7978484"><ele>63.666666666666664</ele><time>2026-04-05T17:10:40.414Z</time></trkpt><trkpt lat="44.1229727" lon="9.7979571"><ele>63.5</ele><time>2026-04-05T17:10:42.418Z</time></trkpt><trkpt lat="44.1230334" lon="9.7979871"><ele>63.33333333333333</ele><time>2026-04-05T17:10:43.422Z</time></trkpt><trkpt lat="44.1230968" lon="9.7980234"><ele>63.166666666666664</ele><time>2026-04-05T17:10:44.421Z</time></trkpt><trkpt lat="44.1231575" lon="9.7980607"><ele>63.0</ele><time>2026-04-05T17:10:45.427Z</time></trkpt><trkpt lat="44.1232113" lon="9.7981304"><ele>64.83333333333333</ele><time>2026-04-05T17:10:46.426Z</time></trkpt><trkpt lat="44.1232517" lon="9.7982149"><ele>66.66666666666667</ele><time>2026-04-05T17:10:47.422Z</time></trkpt><trkpt lat="44.1232805" lon="9.7983166"><ele>68.5</ele><time>2026-04-05T17:10:48.433Z</time></trkpt><trkpt lat="44.1232929" lon="9.7984266"><ele>70.33333333333334</ele><time>2026-04-05T17:10:49.416Z</time></trkpt><trkpt lat="44.1232891" lon="9.7985368"><ele>72.16666666666667</ele><time>2026-04-05T17:10:50.418Z</time></trkpt><trkpt lat="44.123271" lon="9.7986354"><ele>74.0</ele><time>2026-04-05T17:10:51.416Z</time></trkpt><trkpt lat="44.12324" lon="9.7987314"><ele>70.60000000000001</ele><time>2026-04-05T17:10:52.42Z</time></trkpt><trkpt lat="44.1232048" lon="9.7988092"><ele>67.2</ele><time>2026-04-05T17:10:53.418Z</time></trkpt><trkpt lat="44.1231174" lon="9.798876"><ele>63.800000000000004</ele><time>2026-04-05T17:10:55.446Z</time></trkpt><trkpt lat="44.1230165" lon="9.7988263"><ele>60.400000000000006</ele><time>2026-04-05T17:10:57.498Z</time></trkpt><trkpt lat="44.1229488" lon="9.7986897"><ele>57.0</ele><time>2026-04-05T17:10:59.494Z</time></trkpt><trkpt lat="44.1229145" lon="9.7985213"><ele>57.857142857142854</ele><time>2026-04-05T17:11:01.422Z</time></trkpt><trkpt lat="44.1229024" lon="9.7984259"><ele>58.71428571428571</ele><time>2026-04-05T17:11:02.413Z</time></trkpt><trkpt lat="44.1228831" lon="9.7983422"><ele>59.57142857142857</ele><time>2026-04-05T17:11:03.429Z</time></trkpt><trkpt lat="44.1228574" lon="9.7982499"><ele>60.42857142857143</ele><time>2026-04-05T17:11:04.428Z</time></trkpt><trkpt lat="44.1228329" lon="9.7981526"><ele>61.285714285714285</ele><time>2026-04-05T17:11:05.429Z</time></trkpt><trkpt lat="44.1228075" lon="9.7980538"><ele>62.14285714285714</ele><time>2026-04-05T17:11:06.425Z</time></trkpt><trkpt lat="44.1227855" lon="9.7979538"><ele>63.0</ele><time>2026-04-05T17:11:07.428Z</time></trkpt><trkpt lat="44.1227627" lon="9.7978578"><ele>63.0</ele><time>2026-04-05T17:11:08.42Z</time></trkpt><trkpt lat="44.1226975" lon="9.7977345"><ele>63.0</ele><time>2026-04-05T17:11:10.428Z</time></trkpt><trkpt lat="44.1226009" lon="9.7977116"><ele>63.0</ele><time>2026-04-05T17:11:12.412Z</time></trkpt><trkpt lat="44.1225468" lon="9.7977831"><ele>63.0</ele><time>2026-04-05T17:11:13.45Z</time></trkpt><trkpt lat="44.1225256" lon="9.7978805"><ele>63.0</ele><time>2026-04-05T17:11:14.429Z</time></trkpt><trkpt lat="44.1225142" lon="9.7979736"><ele>63.0</ele><time>2026-04-05T17:11:15.419Z</time></trkpt><trkpt lat="44.1225171" lon="9.7980721"><ele>63.0</ele><time>2026-04-05T17:11:16.421Z</time></trkpt><trkpt lat="44.1225434" lon="9.7981671"><ele>63.0</ele><time>2026-04-05T17:11:17.421Z</time></trkpt><trkpt lat="44.1225707" lon="9.798259"><ele>63.0</ele><time>2026-04-05T17:11:18.427Z</time></trkpt><trkpt lat="44.1226017" lon="9.7983428"><ele>63.0</ele><time>2026-04-05T17:11:19.427Z</time></trkpt><trkpt lat="44.1226267" lon="9.798427"><ele>63.0</ele><time>2026-04-05T17:11:20.428Z</time></trkpt><trkpt lat="44.1226441" lon="9.7985242"><ele>63.0</ele><time>2026-04-05T17:11:21.434Z</time></trkpt><trkpt lat="44.1226611" lon="9.7986259"><ele>63.0</ele><time>2026-04-05T17:11:22.429Z</time></trkpt><trkpt lat="44.1226729" lon="9.7987362"><ele>62.0</ele><time>2026-04-05T17:11:23.417Z</time></trkpt><trkpt lat="44.1226827" lon="9.7988517"><ele>61.0</ele><time>2026-04-05T17:11:24.414Z</time></trkpt><trkpt lat="44.1227018" lon="9.7989628"><ele>60.0</ele><time>2026-04-05T17:11:25.496Z</time></trkpt><trkpt lat="44.1227231" lon="9.7990694"><ele>59.0</ele><time>2026-04-05T17:11:26.428Z</time></trkpt><trkpt lat="44.1227499" lon="9.7991758"><ele>58.0</ele><time>2026-04-05T17:11:27.432Z</time></trkpt><trkpt lat="44.1227752" lon="9.799283"><ele>57.0</ele><time>2026-04-05T17:11:28.424Z</time></trkpt><trkpt lat="44.1228206" lon="9.7993893"><ele>56.400000000000006</ele><time>2026-04-05T17:11:29.422Z</time></trkpt><trkpt lat="44.1228727" lon="9.7994964"><ele>55.800000000000004</ele><time>2026-04-05T17:11:30.419Z</time></trkpt><trkpt lat="44.1229329" lon="9.7995927"><ele>55.2</ele><time>2026-04-05T17:11:31.43Z</time></trkpt><trkpt lat="44.1229948" lon="9.7996776"><ele>54.6</ele><time>2026-04-05T17:11:32.423Z</time></trkpt><trkpt lat="44.1230466" lon="9.7997548"><ele>54.0</ele><time>2026-04-05T17:11:33.419Z</time></trkpt><trkpt lat="44.123099" lon="9.7999128"><ele>54.0</ele><time>2026-04-05T17:11:35.419Z</time></trkpt><trkpt lat="44.1230508" lon="9.8000306"><ele>54.00000000000001</ele><time>2026-04-05T17:11:37.423Z</time></trkpt><trkpt lat="44.1229468" lon="9.8000734"><ele>54.00000000000001</ele><time>2026-04-05T17:11:39.448Z</time></trkpt><trkpt lat="44.1228343" lon="9.8000908"><ele>54.0</ele><time>2026-04-05T17:11:41.422Z</time></trkpt><trkpt lat="44.1227169" lon="9.8000825"><ele>54.0</ele><time>2026-04-05T17:11:43.428Z</time></trkpt><trkpt lat="44.1225968" lon="9.8000683"><ele>54.0</ele><time>2026-04-05T17:11:45.422Z</time></trkpt><trkpt lat="44.1225327" lon="9.8000656"><ele>54.0</ele><time>2026-04-05T17:11:46.416Z</time></trkpt><trkpt lat="44.122467" lon="9.8000663"><ele>54.0</ele><time>2026-04-05T17:11:47.432Z</time></trkpt><trkpt lat="44.122394" lon="9.8000623"><ele>54.0</ele><time>2026-04-05T17:11:48.418Z</time></trkpt><trkpt lat="44.1223284" lon="9.8000663"><ele>54.0</ele><time>2026-04-05T17:11:49.432Z</time></trkpt><trkpt lat="44.1222621" lon="9.8000587"><ele>54.0</ele><time>2026-04-05T17:11:50.416Z</time></trkpt><trkpt lat="44.1221928" lon="9.8000605"><ele>54.0</ele><time>2026-04-05T17:11:51.418Z</time></trkpt><trkpt lat="44.122127" lon="9.8000583"><ele>53.5</ele><time>2026-04-05T17:11:52.422Z</time></trkpt><trkpt lat="44.1220622" lon="9.8000564"><ele>53.0</ele><time>2026-04-05T17:11:53.418Z</time></trkpt><trkpt lat="44.1219928" lon="9.8000533"><ele>52.5</ele><time>2026-04-05T17:11:54.428Z</time></trkpt><trkpt lat="44.1218708" lon="9.800058"><ele>52.0</ele><time>2026-04-05T17:11:56.419Z</time></trkpt><trkpt lat="44.1217452" lon="9.800066"><ele>51.5</ele><time>2026-04-05T17:11:58.421Z</time></trkpt><trkpt lat="44.1216807" lon="9.8000735"><ele>51.0</ele><time>2026-04-05T17:11:59.422Z</time></trkpt><trkpt lat="44.121561" lon="9.8000591"><ele>50.599999999999994</ele><time>2026-04-05T17:12:01.416Z</time></trkpt><trkpt lat="44.1214478" lon="9.8000627"><ele>50.2</ele><time>2026-04-05T17:12:03.427Z</time></trkpt><trkpt lat="44.1213384" lon="9.8000835"><ele>49.8</ele><time>2026-04-05T17:12:05.428Z</time></trkpt><trkpt lat="44.1212366" lon="9.8000833"><ele>49.400000000000006</ele><time>2026-04-05T17:12:07.437Z</time></trkpt><trkpt lat="44.1211345" lon="9.8000748"><ele>49.0</ele><time>2026-04-05T17:12:09.424Z</time></trkpt><trkpt lat="44.1210362" lon="9.8000972"><ele>48.2</ele><time>2026-04-05T17:12:11.425Z</time></trkpt><trkpt lat="44.120942" lon="9.8001864"><ele>47.400000000000006</ele><time>2026-04-05T17:12:13.423Z</time></trkpt><trkpt lat="44.1208832" lon="9.8003048"><ele>46.6</ele><time>2026-04-05T17:12:15.421Z</time></trkpt><trkpt lat="44.120792" lon="9.8003933"><ele>45.8</ele><time>2026-04-05T17:12:17.423Z</time></trkpt><trkpt lat="44.1207028" lon="9.8004601"><ele>45.0</ele><time>2026-04-05T17:12:19.446Z</time></trkpt><trkpt lat="44.120593" lon="9.8005306"><ele>45.0</ele><time>2026-04-05T17:12:21.42Z</time></trkpt><trkpt lat="44.1204784" lon="9.8005945"><ele>45.0</ele><time>2026-04-05T17:12:23.44Z</time></trkpt><trkpt lat="44.1204194" lon="9.8006341"><ele>45.0</ele><time>2026-04-05T17:12:24.432Z</time></trkpt><trkpt lat="44.1203515" lon="9.8006727"><ele>45.0</ele><time>2026-04-05T17:12:25.465Z</time></trkpt><trkpt lat="44.1202919" lon="9.8007102"><ele>45.0</ele><time>2026-04-05T17:12:26.427Z</time></trkpt><trkpt lat="44.1202164" lon="9.8007473"><ele>45.0</ele><time>2026-04-05T17:12:27.447Z</time></trkpt><trkpt lat="44.1201452" lon="9.8007893"><ele>45.0</ele><time>2026-04-05T17:12:28.425Z</time></trkpt><trkpt lat="44.1200674" lon="9.8008229"><ele>45.0</ele><time>2026-04-05T17:12:29.429Z</time></trkpt><trkpt lat="44.1200064" lon="9.8008622"><ele>45.0</ele><time>2026-04-05T17:12:30.418Z</time></trkpt><trkpt lat="44.1199437" lon="9.8008984"><ele>45.0</ele><time>2026-04-05T17:12:31.424Z</time></trkpt><trkpt lat="44.1198777" lon="9.8009292"><ele>45.0</ele><time>2026-04-05T17:12:32.421Z</time></trkpt><trkpt lat="44.1198087" lon="9.8009537"><ele>45.0</ele><time>2026-04-05T17:12:33.417Z</time></trkpt><trkpt lat="44.1197467" lon="9.8009916"><ele>45.0</ele><time>2026-04-05T17:12:34.427Z</time></trkpt><trkpt lat="44.1196779" lon="9.8010284"><ele>44.0</ele><time>2026-04-05T17:12:35.422Z</time></trkpt><trkpt lat="44.1196045" lon="9.8010591"><ele>43.0</ele><time>2026-04-05T17:12:36.441Z</time></trkpt><trkpt lat="44.1195433" lon="9.8010958"><ele>42.0</ele><time>2026-04-05T17:12:37.425Z</time></trkpt><trkpt lat="44.1194774" lon="9.8011226"><ele>41.0</ele><time>2026-04-05T17:12:38.416Z</time></trkpt><trkpt lat="44.1193635" lon="9.801202"><ele>40.0</ele><time>2026-04-05T17:12:40.421Z</time></trkpt><trkpt lat="44.1193007" lon="9.8012358"><ele>39.0</ele><time>2026-04-05T17:12:41.444Z</time></trkpt><trkpt lat="44.1192354" lon="9.8012773"><ele>39.0</ele><time>2026-04-05T17:12:42.429Z</time></trkpt><trkpt lat="44.1191274" lon="9.8013724"><ele>39.0</ele><time>2026-04-05T17:12:44.432Z</time></trkpt><trkpt lat="44.1190681" lon="9.8014025"><ele>39.0</ele><time>2026-04-05T17:12:45.426Z</time></trkpt><trkpt lat="44.1190038" lon="9.8014461"><ele>39.0</ele><time>2026-04-05T17:12:46.42Z</time></trkpt><trkpt lat="44.1189071" lon="9.8015372"><ele>39.0</ele><time>2026-04-05T17:12:48.438Z</time></trkpt><trkpt lat="44.1188172" lon="9.8016429"><ele>38.6</ele><time>2026-04-05T17:12:50.42Z</time></trkpt><trkpt lat="44.1187475" lon="9.8017751"><ele>38.2</ele><time>2026-04-05T17:12:52.424Z</time></trkpt><trkpt lat="44.1187231" lon="9.8018601"><ele>37.800000000000004</ele><time>2026-04-05T17:12:53.438Z</time></trkpt><trkpt lat="44.1187038" lon="9.8019471"><ele>37.4</ele><time>2026-04-05T17:12:54.427Z</time></trkpt><trkpt lat="44.118686" lon="9.8021054"><ele>37.0</ele><time>2026-04-05T17:12:56.422Z</time></trkpt><trkpt lat="44.1186575" lon="9.8022339"><ele>37.0</ele><time>2026-04-05T17:12:58.422Z</time></trkpt><trkpt lat="44.118632" lon="9.8023873"><ele>37.0</ele><time>2026-04-05T17:13:00.422Z</time></trkpt><trkpt lat="44.1186148" lon="9.8025363"><ele>37.0</ele><time>2026-04-05T17:13:02.432Z</time></trkpt><trkpt lat="44.1185614" lon="9.8026648"><ele>37.0</ele><time>2026-04-05T17:13:04.418Z</time></trkpt><trkpt lat="44.1185126" lon="9.8027601"><ele>37.0</ele><time>2026-04-05T17:13:06.434Z</time></trkpt><trkpt lat="44.1184811" lon="9.8028648"><ele>37.0</ele><time>2026-04-05T17:13:08.436Z</time></trkpt><trkpt lat="44.1184216" lon="9.8029558"><ele>37.0</ele><time>2026-04-05T17:13:10.43Z</time></trkpt><trkpt lat="44.1183508" lon="9.8030378"><ele>37.0</ele><time>2026-04-05T17:13:12.441Z</time></trkpt><trkpt lat="44.1182858" lon="9.8031372"><ele>37.0</ele><time>2026-04-05T17:13:14.421Z</time></trkpt><trkpt lat="44.1181917" lon="9.803228"><ele>37.0</ele><time>2026-04-05T17:13:16.439Z</time></trkpt><trkpt lat="44.1181087" lon="9.8033477"><ele>37.0</ele><time>2026-04-05T17:13:18.448Z</time></trkpt><trkpt lat="44.1180209" lon="9.8034571"><ele>37.0</ele><time>2026-04-05T17:13:20.456Z</time></trkpt><trkpt lat="44.1179397" lon="9.8035584"><ele>37.0</ele><time>2026-04-05T17:13:22.491Z</time></trkpt><trkpt lat="44.1178707" lon="9.8036469"><ele>37.0</ele><time>2026-04-05T17:13:24.449Z</time></trkpt><trkpt lat="44.1177973" lon="9.8037565"><ele>37.0</ele><time>2026-04-05T17:13:26.42Z</time></trkpt><trkpt lat="44.1177172" lon="9.8038543"><ele>36.800000000000004</ele><time>2026-04-05T17:13:28.437Z</time></trkpt><trkpt lat="44.1176421" lon="9.8039521"><ele>36.6</ele><time>2026-04-05T17:13:30.426Z</time></trkpt><trkpt lat="44.1175712" lon="9.8040933"><ele>36.400000000000006</ele><time>2026-04-05T17:13:32.428Z</time></trkpt><trkpt lat="44.1175419" lon="9.8042429"><ele>36.2</ele><time>2026-04-05T17:13:34.432Z</time></trkpt><trkpt lat="44.1175024" lon="9.8043395"><ele>36.0</ele><time>2026-04-05T17:13:37.432Z</time></trkpt><trkpt lat="44.1174837" lon="9.8042434"><ele>36.0</ele><time>2026-04-05T17:13:50.42Z</time></trkpt><trkpt lat="44.1174026" lon="9.8042181"><ele>36.0</ele><time>2026-04-05T17:13:53.447Z</time></trkpt><trkpt lat="44.1173047" lon="9.8041439"><ele>36.0</ele><time>2026-04-05T17:13:55.433Z</time></trkpt><trkpt lat="44.1172441" lon="9.8040986"><ele>36.0</ele><time>2026-04-05T17:13:56.431Z</time></trkpt><trkpt lat="44.117178" lon="9.8040645"><ele>36.0</ele><time>2026-04-05T17:13:57.454Z</time></trkpt><trkpt lat="44.1170698" lon="9.8039775"><ele>29.0</ele><time>2026-04-05T17:13:59.432Z</time></trkpt><trkpt lat="44.1164208" lon="9.8035717"><ele>29.0</ele><time>2026-04-05T17:14:09.18Z</time></trkpt><trkpt lat="44.116051" lon="9.8037303"><ele>29.0</ele><time>2026-04-05T17:14:18.199Z</time></trkpt><trkpt lat="44.1160014" lon="9.803793"><ele>28.0</ele><time>2026-04-05T17:14:20.745Z</time></trkpt><trkpt lat="44.1155988" lon="9.8037239"><ele>27.0</ele><time>2026-04-05T17:14:27.186Z</time></trkpt><trkpt lat="44.1151142" lon="9.8034239"><ele>27.0</ele><time>2026-04-05T17:14:36.243Z</time></trkpt><trkpt lat="44.1150329" lon="9.8033705"><ele>27.0</ele><time>2026-04-05T17:14:38.892Z</time></trkpt><trkpt lat="44.1147541" lon="9.8032176"><ele>27.0</ele><time>2026-04-05T17:14:45.182Z</time></trkpt><trkpt lat="44.1142582" lon="9.8030793"><ele>26.0</ele><time>2026-04-05T17:14:54.179Z</time></trkpt><trkpt lat="44.1139251" lon="9.8029982"><ele>25.0</ele><time>2026-04-05T17:15:03.181Z</time></trkpt><trkpt lat="44.1136835" lon="9.8032269"><ele>25.0</ele><time>2026-04-05T17:15:12.207Z</time></trkpt><trkpt lat="44.1133867" lon="9.8029449"><ele>25.0</ele><time>2026-04-05T17:15:21.228Z</time></trkpt><trkpt lat="44.1131633" lon="9.8027543"><ele>23.0</ele><time>2026-04-05T17:15:30.167Z</time></trkpt><trkpt lat="44.1128715" lon="9.8026978"><ele>21.0</ele><time>2026-04-05T17:15:39.209Z</time></trkpt><trkpt lat="44.1122762" lon="9.802426"><ele>20.5</ele><time>2026-04-05T17:15:48.405Z</time></trkpt><trkpt lat="44.1119183" lon="9.8022789"><ele>20.0</ele><time>2026-04-05T17:15:57.186Z</time></trkpt><trkpt lat="44.1117786" lon="9.8017239"><ele>20.0</ele><time>2026-04-05T17:16:06.17Z</time></trkpt><trkpt lat="44.1118137" lon="9.801101"><ele>20.0</ele><time>2026-04-05T17:16:15.17Z</time></trkpt><trkpt lat="44.1119737" lon="9.8005327"><ele>20.0</ele><time>2026-04-05T17:16:24.28Z</time></trkpt><trkpt lat="44.1121054" lon="9.800073"><ele>20.0</ele><time>2026-04-05T17:16:33.194Z</time></trkpt><trkpt lat="44.1120362" lon="9.8005919"><ele>20.0</ele><time>2026-04-05T17:16:42.181Z</time></trkpt><trkpt lat="44.1119925" lon="9.8002125"><ele>20.0</ele><time>2026-04-05T17:16:51.193Z</time></trkpt><trkpt lat="44.112026" lon="9.800035"><ele>20.0</ele><time>2026-04-05T17:17:02.854Z</time></trkpt><trkpt lat="44.1120864" lon="9.7998213"><ele>42.0</ele><time>2026-04-05T17:17:09.212Z</time></trkpt><trkpt lat="44.1121932" lon="9.7991035"><ele>29.0</ele><time>2026-04-05T17:17:11.511Z</time></trkpt><trkpt lat="44.1120112" lon="9.7997117"><ele>48.0</ele><time>2026-04-05T17:17:18.411Z</time></trkpt><trkpt lat="44.1119933" lon="9.7984068"><ele>45.0</ele><time>2026-04-05T17:17:27.163Z</time></trkpt><trkpt lat="44.112207" lon="9.7986898"><ele>42.0</ele><time>2026-04-05T17:17:36.288Z</time></trkpt><trkpt lat="44.1123575" lon="9.7989964"><ele>36.0</ele><time>2026-04-05T17:17:45.179Z</time></trkpt><trkpt lat="44.1128093" lon="9.7991387"><ele>36.0</ele><time>2026-04-05T17:17:54.161Z</time></trkpt><trkpt lat="44.1131839" lon="9.7990261"><ele>36.0</ele><time>2026-04-05T17:18:03.289Z</time></trkpt><trkpt lat="44.1134135" lon="9.7990762"><ele>36.0</ele><time>2026-04-05T17:18:12.164Z</time></trkpt><trkpt lat="44.1131206" lon="9.7991458"><ele>36.0</ele><time>2026-04-05T17:18:21.181Z</time></trkpt><trkpt lat="44.1128789" lon="9.7988359"><ele>36.0</ele><time>2026-04-05T17:18:30.236Z</time></trkpt><trkpt lat="44.1131279" lon="9.7988352"><ele>36.0</ele><time>2026-04-05T17:18:39.321Z</time></trkpt><trkpt lat="44.1133684" lon="9.7988479"><ele>36.0</ele><time>2026-04-05T17:18:48.272Z</time></trkpt><trkpt lat="44.1131357" lon="9.798609"><ele>36.0</ele><time>2026-04-05T17:19:15.212Z</time></trkpt><trkpt lat="44.1129472" lon="9.7985899"><ele>73.0</ele><time>2026-04-05T17:19:24.211Z</time></trkpt><trkpt lat="44.1136836" lon="9.7983177"><ele>73.0</ele><time>2026-04-05T17:19:46.883Z</time></trkpt><trkpt lat="44.1140134" lon="9.7982507"><ele>73.0</ele><time>2026-04-05T17:19:51.181Z</time></trkpt><trkpt lat="44.113896" lon="9.7981965"><ele>73.0</ele><time>2026-04-05T17:20:00.394Z</time></trkpt><trkpt lat="44.1134928" lon="9.7981562"><ele>73.0</ele><time>2026-04-05T17:20:17.381Z</time></trkpt><trkpt lat="44.1130918" lon="9.798166"><ele>73.0</ele><time>2026-04-05T17:20:26.076Z</time></trkpt><trkpt lat="44.1132879" lon="9.7981318"><ele>73.0</ele><time>2026-04-05T17:20:27.183Z</time></trkpt><trkpt lat="44.1137003" lon="9.7978431"><ele>73.0</ele><time>2026-04-05T17:20:36.2Z</time></trkpt><trkpt lat="44.1135399" lon="9.7977743"><ele>73.0</ele><time>2026-04-05T17:20:57.017Z</time></trkpt><trkpt lat="44.1133428" lon="9.7978712"><ele>73.0</ele><time>2026-04-05T17:21:03.186Z</time></trkpt><trkpt lat="44.1131744" lon="9.7977157"><ele>86.5</ele><time>2026-04-05T17:21:05.948Z</time></trkpt><trkpt lat="44.1132681" lon="9.7975023"><ele>100.0</ele><time>2026-04-05T17:21:12.219Z</time></trkpt><trkpt lat="44.1136823" lon="9.7974144"><ele>100.0</ele><time>2026-04-05T17:21:21.186Z</time></trkpt><trkpt lat="44.1136893" lon="9.7972205"><ele>100.0</ele><time>2026-04-05T17:21:42.099Z</time></trkpt><trkpt lat="44.1136354" lon="9.7968264"><ele>100.0</ele><time>2026-04-05T17:21:59.841Z</time></trkpt><trkpt lat="44.113749" lon="9.797363"><ele>135.0</ele><time>2026-04-05T17:22:15.179Z</time></trkpt><trkpt lat="44.1142679" lon="9.7965268"><ele>135.0</ele><time>2026-04-05T17:22:24.409Z</time></trkpt><trkpt lat="44.114588" lon="9.7965043"><ele>135.0</ele><time>2026-04-05T17:22:33.257Z</time></trkpt><trkpt lat="44.1149043" lon="9.7964287"><ele>133.5</ele><time>2026-04-05T17:22:42.161Z</time></trkpt><trkpt lat="44.1150333" lon="9.7962733"><ele>132.0</ele><time>2026-04-05T17:22:51.222Z</time></trkpt><trkpt lat="44.1153688" lon="9.7961092"><ele>132.0</ele><time>2026-04-05T17:23:00.207Z</time></trkpt><trkpt lat="44.1155262" lon="9.7960286"><ele>132.0</ele><time>2026-04-05T17:23:09.164Z</time></trkpt><trkpt lat="44.1153745" lon="9.796235"><ele>132.0</ele><time>2026-04-05T17:23:18.232Z</time></trkpt><trkpt lat="44.1155719" lon="9.7961431"><ele>132.0</ele><time>2026-04-05T17:23:27.183Z</time></trkpt><trkpt lat="44.115714" lon="9.7961141"><ele>132.0</ele><time>2026-04-05T17:23:36.215Z</time></trkpt><trkpt lat="44.1165159" lon="9.7960062"><ele>114.0</ele><time>2026-04-05T17:23:41.388Z</time></trkpt><trkpt lat="44.1158367" lon="9.79607"><ele>127.66666666666666</ele><time>2026-04-05T17:23:50.051Z</time></trkpt><trkpt lat="44.1160234" lon="9.7959726"><ele>141.33333333333331</ele><time>2026-04-05T17:23:58.722Z</time></trkpt><trkpt lat="44.1161223" lon="9.7959394"><ele>155.0</ele><time>2026-04-05T17:24:03.203Z</time></trkpt><trkpt lat="44.1164029" lon="9.7956404"><ele>155.0</ele><time>2026-04-05T17:24:21.304Z</time></trkpt><trkpt lat="44.1165928" lon="9.7956539"><ele>155.0</ele><time>2026-04-05T17:24:39.228Z</time></trkpt><trkpt lat="44.1164058" lon="9.7954654"><ele>155.0</ele><time>2026-04-05T17:25:15.175Z</time></trkpt><trkpt lat="44.1162924" lon="9.7954523"><ele>155.0</ele><time>2026-04-05T17:25:35.932Z</time></trkpt><trkpt lat="44.1161963" lon="9.795306"><ele>155.0</ele><time>2026-04-05T17:26:19.414Z</time></trkpt><trkpt lat="44.1159943" lon="9.7951151"><ele>155.0</ele><time>2026-04-05T17:26:20.402Z</time></trkpt><trkpt lat="44.1159217" lon="9.7951467"><ele>182.0</ele><time>2026-04-05T17:26:21.411Z</time></trkpt></trkseg></trk></gpx>